N600AE LIMG-LIMW
Flight info
| Callsign | N600AE |
|---|---|
| Flight time | N/A |
| Altitude | 11996 |
| Route | EGHIN DCT LIMZ DCT 450620N0072900E DCT 451915N0072823E 452317N0074002E 452732N0075212E DCT SVC |
| Aircraft | TMB8/L-SDFGRY/C |
Departure
| Time | 2026-05-04 21:11 |
|---|---|
| Airport | Riviera Villanova d'Albenga International Airport (LIMG) |
Arrival
| Time | N/A |
|---|---|
| Airport | Aosta Corrado Gex Airport (LIMW) |
| Time | Latitude | Longitude | Altitude | Speed | Heading |
|---|---|---|---|---|---|
| 2026-05-04 21:04 | 44.04561 | 8.12562 | 165 ft | 0 kts | 78° |
| 2026-05-04 21:05 | 44.04543 | 8.12580 | 168 ft | 11 kts | 213° |
| 2026-05-04 21:05 | 44.04570 | 8.12475 | 171 ft | 14 kts | 290° |
| 2026-05-04 21:05 | 44.04611 | 8.12323 | 175 ft | 20 kts | 296° |
| 2026-05-04 21:06 | 44.04720 | 8.12163 | 179 ft | 22 kts | 316° |
| 2026-05-04 21:06 | 44.04789 | 8.12063 | 181 ft | 11 kts | 315° |
| 2026-05-04 21:06 | 44.04844 | 8.11984 | 184 ft | 13 kts | 314° |
| 2026-05-04 21:06 | 44.04918 | 8.11882 | 186 ft | 15 kts | 324° |
| 2026-05-04 21:07 | 44.04991 | 8.11867 | 187 ft | 8 kts | 17° |
| 2026-05-04 21:07 | 44.05014 | 8.11877 | 186 ft | 0 kts | 21° |
| 2026-05-04 21:07 | 44.05027 | 8.11884 | 186 ft | 0 kts | 24° |
| 2026-05-04 21:08 | 44.05038 | 8.11891 | 186 ft | 0 kts | 23° |
| 2026-05-04 21:09 | 44.05047 | 8.11896 | 187 ft | 7 kts | 22° |
| 2026-05-04 21:09 | 44.05092 | 8.11930 | 188 ft | 0 kts | 92° |
| 2026-05-04 21:09 | 44.05092 | 8.11942 | 188 ft | 11 kts | 94° |
| 2026-05-04 21:10 | 44.05073 | 8.12321 | 176 ft | 67 kts | 95° |
| 2026-05-04 21:10 | 44.05040 | 8.13161 | 218 ft | 103 kts | 90° |
| 2026-05-04 21:10 | 44.04950 | 8.14288 | 350 ft | 130 kts | 91° |
| 2026-05-04 21:10 | 44.04924 | 8.15585 | 672 ft | 137 kts | 82° |
| 2026-05-04 21:11 | 44.05060 | 8.16913 | 1074 ft | 142 kts | 77° |
| 2026-05-04 21:11 | 44.05296 | 8.18259 | 1460 ft | 143 kts | 57° |
| 2026-05-04 21:11 | 44.05989 | 8.19237 | 1865 ft | 144 kts | 30° |
| 2026-05-04 21:11 | 44.06957 | 8.19621 | 2275 ft | 150 kts | 0° |
| 2026-05-04 21:12 | 44.07926 | 8.19249 | 2784 ft | 147 kts | 330° |
| 2026-05-04 21:12 | 44.08710 | 8.18337 | 3299 ft | 144 kts | 321° |
| 2026-05-04 21:12 | 44.09468 | 8.17433 | 3796 ft | 142 kts | 322° |
| 2026-05-04 21:12 | 44.10206 | 8.16541 | 4288 ft | 138 kts | 322° |
| 2026-05-04 21:13 | 44.10921 | 8.15688 | 4716 ft | 134 kts | 324° |
| 2026-05-04 21:13 | 44.11569 | 8.14901 | 5135 ft | 124 kts | 318° |
| 2026-05-04 21:13 | 44.12253 | 8.14041 | 5393 ft | 133 kts | 322° |
| 2026-05-04 21:13 | 44.12921 | 8.13253 | 5756 ft | 121 kts | 323° |
| 2026-05-04 21:14 | 44.13554 | 8.12508 | 6111 ft | 119 kts | 320° |
| 2026-05-04 21:14 | 44.14169 | 8.11765 | 6458 ft | 110 kts | 317° |
| 2026-05-04 21:14 | 44.14667 | 8.11097 | 6707 ft | 92 kts | 285° |
| 2026-05-04 21:14 | 44.15580 | 8.10523 | 5897 ft | 176 kts | 333° |
| 2026-05-04 21:15 | 44.16507 | 8.09380 | 6246 ft | 189 kts | 312° |
| 2026-05-04 21:15 | 44.17424 | 8.08006 | 6034 ft | 198 kts | 316° |
| 2026-05-04 21:15 | 44.18114 | 8.07099 | 5830 ft | 199 kts | 319° |
| 2026-05-04 21:15 | 44.19394 | 8.05456 | 5875 ft | 181 kts | 320° |
| 2026-05-04 21:16 | 44.20030 | 8.04701 | 5871 ft | 176 kts | 320° |
| 2026-05-04 21:16 | 44.20937 | 8.03597 | 5863 ft | 171 kts | 320° |
| 2026-05-04 21:16 | 44.21822 | 8.02521 | 5861 ft | 168 kts | 320° |
| 2026-05-04 21:16 | 44.22697 | 8.01461 | 5867 ft | 165 kts | 319° |
| 2026-05-04 21:17 | 44.23566 | 8.00410 | 5869 ft | 165 kts | 319° |
| 2026-05-04 21:17 | 44.24436 | 7.99354 | 5872 ft | 166 kts | 319° |
| 2026-05-04 21:17 | 44.25310 | 7.98294 | 5842 ft | 170 kts | 319° |
| 2026-05-04 21:17 | 44.26187 | 7.97232 | 5826 ft | 166 kts | 320° |
| 2026-05-04 21:18 | 44.27049 | 7.96185 | 5832 ft | 162 kts | 319° |
| 2026-05-04 21:18 | 44.27887 | 7.95162 | 5824 ft | 158 kts | 319° |
| 2026-05-04 21:18 | 44.28708 | 7.94159 | 5820 ft | 155 kts | 320° |
| 2026-05-04 21:18 | 44.29519 | 7.93174 | 5816 ft | 155 kts | 319° |
| 2026-05-04 21:19 | 44.30321 | 7.92191 | 5819 ft | 153 kts | 319° |
| 2026-05-04 21:19 | 44.31129 | 7.91214 | 5821 ft | 155 kts | 320° |
| 2026-05-04 21:19 | 44.31938 | 7.90226 | 5821 ft | 155 kts | 319° |
| 2026-05-04 21:19 | 44.32766 | 7.89212 | 5835 ft | 163 kts | 319° |
| 2026-05-04 21:20 | 44.33653 | 7.88138 | 5845 ft | 173 kts | 320° |
| 2026-05-04 21:20 | 44.34582 | 7.87011 | 5846 ft | 181 kts | 319° |
| 2026-05-04 21:20 | 44.35545 | 7.85840 | 5849 ft | 185 kts | 319° |
| 2026-05-04 21:20 | 44.36523 | 7.84647 | 5852 ft | 188 kts | 319° |
| 2026-05-04 21:21 | 44.37513 | 7.83437 | 5842 ft | 190 kts | 319° |
| 2026-05-04 21:21 | 44.38509 | 7.82218 | 5851 ft | 190 kts | 319° |
| 2026-05-04 21:21 | 44.39507 | 7.80996 | 5850 ft | 191 kts | 319° |
| 2026-05-04 21:21 | 44.40512 | 7.79766 | 5854 ft | 194 kts | 319° |
| 2026-05-04 21:22 | 44.41547 | 7.78487 | 5900 ft | 199 kts | 319° |
| 2026-05-04 21:22 | 44.42603 | 7.77203 | 5972 ft | 201 kts | 319° |
| 2026-05-04 21:22 | 44.43669 | 7.75902 | 5977 ft | 206 kts | 319° |
| 2026-05-04 21:22 | 44.44754 | 7.74576 | 5989 ft | 208 kts | 319° |
| 2026-05-04 21:23 | 44.45849 | 7.73233 | 5988 ft | 210 kts | 319° |
| 2026-05-04 21:23 | 44.46950 | 7.71883 | 5990 ft | 210 kts | 319° |
| 2026-05-04 21:23 | 44.48042 | 7.70549 | 5942 ft | 208 kts | 319° |
| 2026-05-04 21:23 | 44.49134 | 7.69237 | 5430 ft | 202 kts | 320° |
| 2026-05-04 21:24 | 44.50175 | 7.67971 | 4934 ft | 195 kts | 319° |
| 2026-05-04 21:24 | 44.51171 | 7.66723 | 4412 ft | 190 kts | 319° |
| 2026-05-04 21:24 | 44.52147 | 7.65515 | 3903 ft | 185 kts | 319° |
| 2026-05-04 21:24 | 44.53197 | 7.64614 | 3472 ft | 172 kts | 357° |
| 2026-05-04 21:25 | 44.54219 | 7.65224 | 3058 ft | 156 kts | 36° |
| 2026-05-04 21:25 | 44.55077 | 7.66113 | 2542 ft | 151 kts | 34° |
| 2026-05-04 21:25 | 44.55917 | 7.66936 | 2152 ft | 141 kts | 33° |
| 2026-05-04 21:25 | 44.56803 | 7.67526 | 2038 ft | 146 kts | 1° |
| 2026-05-04 21:26 | 44.57690 | 7.67050 | 2047 ft | 132 kts | 313° |
| 2026-05-04 21:26 | 44.57979 | 7.65920 | 1924 ft | 126 kts | 268° |
| 2026-05-04 21:26 | 44.57649 | 7.64794 | 1773 ft | 127 kts | 223° |
| 2026-05-04 21:26 | 44.56889 | 7.64237 | 1519 ft | 126 kts | 210° |
| 2026-05-04 21:27 | 44.56150 | 7.63557 | 1379 ft | 120 kts | 211° |
| 2026-05-04 21:27 | 44.55496 | 7.62986 | 1260 ft | 103 kts | 213° |
| 2026-05-04 21:27 | 44.54919 | 7.62475 | 1256 ft | 99 kts | 211° |
| 2026-05-04 21:27 | 44.54249 | 7.61934 | 1380 ft | 123 kts | 210° |
| 2026-05-04 21:28 | 44.53468 | 7.61326 | 1731 ft | 130 kts | 208° |
| 2026-05-04 21:28 | 44.52643 | 7.60711 | 2062 ft | 141 kts | 211° |
| 2026-05-04 21:28 | 44.51697 | 7.60456 | 2412 ft | 140 kts | 165° |
| 2026-05-04 21:28 | 44.51033 | 7.61366 | 2535 ft | 143 kts | 102° |
| 2026-05-04 21:29 | 44.51283 | 7.62702 | 2495 ft | 151 kts | 49° |
| 2026-05-04 21:29 | 44.52086 | 7.63631 | 2524 ft | 151 kts | 29° |
| 2026-05-04 21:29 | 44.52997 | 7.64414 | 2504 ft | 155 kts | 30° |
| 2026-05-04 21:29 | 44.53909 | 7.65175 | 2599 ft | 151 kts | 27° |
| 2026-05-04 21:30 | 44.54821 | 7.65881 | 2534 ft | 148 kts | 26° |
| 2026-05-04 21:30 | 44.55727 | 7.66547 | 2451 ft | 145 kts | 25° |
| 2026-05-04 21:30 | 44.56615 | 7.67202 | 2388 ft | 144 kts | 26° |
| 2026-05-04 21:30 | 44.57496 | 7.67850 | 2340 ft | 143 kts | 26° |
| 2026-05-04 21:31 | 44.59247 | 7.68128 | 2210 ft | 136 kts | 319° |
| 2026-05-04 21:31 | 44.59670 | 7.66998 | 2126 ft | 133 kts | 274° |
| 2026-05-04 21:31 | 44.59279 | 7.65926 | 1931 ft | 130 kts | 206° |
| 2026-05-04 21:32 | 44.58487 | 7.65551 | 1854 ft | 110 kts | 200° |
| 2026-05-04 21:32 | 44.57819 | 7.65077 | 1782 ft | 107 kts | 215° |
| 2026-05-04 21:32 | 44.57204 | 7.64505 | 1633 ft | 105 kts | 212° |
| 2026-05-04 21:32 | 44.56596 | 7.63984 | 1507 ft | 102 kts | 215° |
| 2026-05-04 21:33 | 44.56008 | 7.63435 | 1374 ft | 100 kts | 213° |
| 2026-05-04 21:33 | 44.55416 | 7.62937 | 1421 ft | 100 kts | 210° |
| 2026-05-04 21:33 | 44.54782 | 7.62431 | 1651 ft | 110 kts | 209° |
| 2026-05-04 21:33 | 44.54080 | 7.61892 | 1929 ft | 121 kts | 209° |
| 2026-05-04 21:34 | 44.53285 | 7.61337 | 2209 ft | 136 kts | 186° |
| 2026-05-04 21:34 | 44.52479 | 7.62024 | 2429 ft | 149 kts | 122° |
| 2026-05-04 21:34 | 44.52218 | 7.63424 | 2561 ft | 149 kts | 84° |
| 2026-05-04 21:34 | 44.52657 | 7.64700 | 2566 ft | 152 kts | 44° |
| 2026-05-04 21:35 | 44.53470 | 7.65609 | 2696 ft | 146 kts | 30° |
| 2026-05-04 21:35 | 44.54350 | 7.66380 | 2683 ft | 152 kts | 31° |
| 2026-05-04 21:35 | 44.55247 | 7.67198 | 2672 ft | 155 kts | 31° |
| 2026-05-04 21:35 | 44.56125 | 7.68043 | 2692 ft | 156 kts | 33° |
| 2026-05-04 21:36 | 44.57008 | 7.68916 | 2680 ft | 154 kts | 33° |
| 2026-05-04 21:36 | 44.57885 | 7.69768 | 2679 ft | 153 kts | 33° |
| 2026-05-04 21:36 | 44.58755 | 7.70610 | 2677 ft | 152 kts | 33° |
| 2026-05-04 21:36 | 44.59623 | 7.71449 | 2675 ft | 151 kts | 33° |
| 2026-05-04 21:37 | 44.60485 | 7.72282 | 2673 ft | 150 kts | 33° |
| 2026-05-04 21:37 | 44.61344 | 7.73115 | 2672 ft | 150 kts | 33° |
| 2026-05-04 21:37 | 44.62212 | 7.73921 | 2669 ft | 149 kts | 23° |
| 2026-05-04 21:37 | 44.63204 | 7.73929 | 2674 ft | 147 kts | 332° |
| 2026-05-04 21:38 | 44.63796 | 7.72827 | 2685 ft | 147 kts | 280° |
| 2026-05-04 21:38 | 44.63530 | 7.71479 | 2686 ft | 149 kts | 230° |
| 2026-05-04 21:38 | 44.62893 | 7.70341 | 2680 ft | 148 kts | 243° |
| 2026-05-04 21:38 | 44.62265 | 7.69213 | 2678 ft | 144 kts | 218° |
| 2026-05-04 21:39 | 44.61511 | 7.68454 | 2671 ft | 126 kts | 217° |
| 2026-05-04 21:39 | 44.60787 | 7.67767 | 2515 ft | 126 kts | 215° |
| 2026-05-04 21:39 | 44.60055 | 7.67083 | 2346 ft | 127 kts | 215° |
| 2026-05-04 21:39 | 44.59313 | 7.66409 | 2168 ft | 125 kts | 214° |
| 2026-05-04 21:40 | 44.58623 | 7.65784 | 1991 ft | 110 kts | 214° |
| 2026-05-04 21:40 | 44.58008 | 7.65246 | 1843 ft | 99 kts | 214° |
| 2026-05-04 21:40 | 44.57431 | 7.64737 | 1711 ft | 97 kts | 214° |
| 2026-05-04 21:40 | 44.56866 | 7.64222 | 1584 ft | 97 kts | 214° |
| 2026-05-04 21:41 | 44.56307 | 7.63721 | 1457 ft | 94 kts | 213° |
| 2026-05-04 21:41 | 44.55768 | 7.63229 | 1339 ft | 91 kts | 214° |
| 2026-05-04 21:41 | 44.55232 | 7.62754 | 1246 ft | 88 kts | 215° |
| 2026-05-04 21:41 | 44.54736 | 7.62308 | 1268 ft | 92 kts | 210° |
| 2026-05-04 21:42 | 44.54137 | 7.61796 | 1500 ft | 105 kts | 212° |
| 2026-05-04 21:42 | 44.53508 | 7.61224 | 1868 ft | 107 kts | 212° |
| 2026-05-04 21:42 | 44.52977 | 7.60511 | 2257 ft | 108 kts | 247° |
| 2026-05-04 21:42 | 44.53059 | 7.59480 | 2584 ft | 116 kts | 303° |
| 2026-05-04 21:43 | 44.53742 | 7.58779 | 2786 ft | 133 kts | 340° |
| 2026-05-04 21:43 | 44.54642 | 7.58480 | 3239 ft | 136 kts | 347° |
| 2026-05-04 21:43 | 44.55665 | 7.58188 | 3351 ft | 159 kts | 349° |
| 2026-05-04 21:43 | 44.56785 | 7.58046 | 3617 ft | 166 kts | 11° |
| 2026-05-04 21:44 | 44.57888 | 7.58631 | 3823 ft | 173 kts | 22° |
| 2026-05-04 21:44 | 44.59009 | 7.59323 | 4170 ft | 179 kts | 22° |
| 2026-05-04 21:44 | 44.60171 | 7.60010 | 4434 ft | 183 kts | 20° |
| 2026-05-04 21:44 | 44.61403 | 7.60436 | 4705 ft | 187 kts | 7° |
| 2026-05-04 21:45 | 44.62729 | 7.60361 | 4976 ft | 191 kts | 351° |
| 2026-05-04 21:45 | 44.64081 | 7.60001 | 5006 ft | 205 kts | 349° |
| 2026-05-04 21:45 | 44.65513 | 7.59620 | 5011 ft | 214 kts | 350° |
| 2026-05-04 21:45 | 44.67004 | 7.59250 | 5012 ft | 220 kts | 350° |
| 2026-05-04 21:46 | 44.68527 | 7.58873 | 5010 ft | 224 kts | 350° |
| 2026-05-04 21:46 | 44.70044 | 7.58495 | 4981 ft | 225 kts | 350° |
| 2026-05-04 21:46 | 44.71579 | 7.58114 | 5006 ft | 223 kts | 349° |
| 2026-05-04 21:46 | 44.73112 | 7.57726 | 5010 ft | 225 kts | 349° |
| 2026-05-04 21:47 | 44.74653 | 7.57341 | 5011 ft | 225 kts | 349° |
| 2026-05-04 21:47 | 44.76204 | 7.56957 | 5008 ft | 227 kts | 350° |
| 2026-05-04 21:47 | 44.77758 | 7.56572 | 5010 ft | 227 kts | 350° |
| 2026-05-04 21:47 | 44.79312 | 7.56181 | 5012 ft | 227 kts | 350° |
| 2026-05-04 21:48 | 44.80868 | 7.55791 | 5007 ft | 227 kts | 350° |
| 2026-05-04 21:48 | 44.82421 | 7.55402 | 5009 ft | 227 kts | 350° |
| 2026-05-04 21:48 | 44.83976 | 7.55014 | 5010 ft | 227 kts | 350° |
| 2026-05-04 21:48 | 44.85525 | 7.54626 | 5010 ft | 226 kts | 350° |
| 2026-05-04 21:49 | 44.87077 | 7.54236 | 5013 ft | 226 kts | 350° |
| 2026-05-04 21:49 | 44.88626 | 7.53847 | 5011 ft | 226 kts | 350° |
| 2026-05-04 21:49 | 44.90174 | 7.53458 | 5012 ft | 226 kts | 350° |
| 2026-05-04 21:49 | 44.91722 | 7.53071 | 5010 ft | 226 kts | 350° |
| 2026-05-04 21:50 | 44.93268 | 7.52683 | 5008 ft | 225 kts | 350° |
| 2026-05-04 21:50 | 44.94812 | 7.52294 | 4998 ft | 225 kts | 350° |
| 2026-05-04 21:50 | 44.96356 | 7.51906 | 4999 ft | 225 kts | 349° |
| 2026-05-04 21:50 | 44.97898 | 7.51518 | 4998 ft | 225 kts | 350° |
| 2026-05-04 21:51 | 44.99435 | 7.51130 | 4998 ft | 224 kts | 350° |
| 2026-05-04 21:51 | 45.00964 | 7.50746 | 4999 ft | 223 kts | 350° |
| 2026-05-04 21:51 | 45.02490 | 7.50361 | 4997 ft | 223 kts | 349° |
| 2026-05-04 21:51 | 45.04017 | 7.49976 | 4995 ft | 223 kts | 349° |
| 2026-05-04 21:52 | 45.05548 | 7.49589 | 4998 ft | 223 kts | 350° |
| 2026-05-04 21:52 | 45.07075 | 7.49203 | 5002 ft | 224 kts | 349° |
| 2026-05-04 21:52 | 45.08612 | 7.48818 | 5000 ft | 224 kts | 349° |
| 2026-05-04 21:52 | 45.10141 | 7.48431 | 4998 ft | 224 kts | 349° |
| 2026-05-04 21:53 | 45.11693 | 7.48244 | 4995 ft | 224 kts | 358° |
| 2026-05-04 21:53 | 45.13253 | 7.48205 | 4995 ft | 224 kts | 358° |
| 2026-05-04 21:53 | 45.14802 | 7.48132 | 4988 ft | 221 kts | 356° |
| 2026-05-04 21:53 | 45.16301 | 7.48049 | 5140 ft | 214 kts | 357° |
| 2026-05-04 21:54 | 45.17766 | 7.47977 | 5400 ft | 208 kts | 357° |
| 2026-05-04 21:54 | 45.19218 | 7.47907 | 5493 ft | 212 kts | 357° |
| 2026-05-04 21:54 | 45.20715 | 7.47837 | 5490 ft | 218 kts | 356° |
| 2026-05-04 21:54 | 45.22225 | 7.47769 | 5507 ft | 218 kts | 356° |
| 2026-05-04 21:55 | 45.23750 | 7.47697 | 5496 ft | 219 kts | 356° |
| 2026-05-04 21:55 | 45.25287 | 7.47617 | 5507 ft | 223 kts | 357° |
| 2026-05-04 21:55 | 45.26849 | 7.47545 | 5507 ft | 226 kts | 357° |
| 2026-05-04 21:55 | 45.28423 | 7.47472 | 5506 ft | 226 kts | 357° |
| 2026-05-04 21:56 | 45.29997 | 7.47494 | 5503 ft | 227 kts | 7° |
| 2026-05-04 21:56 | 45.31488 | 7.48243 | 5496 ft | 230 kts | 27° |
| 2026-05-04 21:56 | 45.32738 | 7.49660 | 5493 ft | 233 kts | 46° |
| 2026-05-04 21:56 | 45.33602 | 7.51624 | 5510 ft | 235 kts | 64° |
| 2026-05-04 21:57 | 45.34298 | 7.53712 | 5510 ft | 233 kts | 63° |
| 2026-05-04 21:57 | 45.35020 | 7.55749 | 5510 ft | 233 kts | 63° |
| 2026-05-04 21:57 | 45.35740 | 7.57809 | 5509 ft | 233 kts | 63° |
| 2026-05-04 21:57 | 45.36451 | 7.59877 | 5509 ft | 232 kts | 63° |
| 2026-05-04 21:58 | 45.37163 | 7.61940 | 5508 ft | 232 kts | 63° |
| 2026-05-04 21:58 | 45.37875 | 7.64000 | 5509 ft | 232 kts | 63° |
| 2026-05-04 21:58 | 45.38586 | 7.66063 | 5509 ft | 232 kts | 63° |
| 2026-05-04 21:58 | 45.39300 | 7.68124 | 5509 ft | 232 kts | 63° |
| 2026-05-04 21:59 | 45.40025 | 7.70182 | 5510 ft | 232 kts | 63° |
| 2026-05-04 21:59 | 45.40747 | 7.72238 | 5510 ft | 232 kts | 63° |
| 2026-05-04 21:59 | 45.41457 | 7.74268 | 5510 ft | 232 kts | 63° |
| 2026-05-04 21:59 | 45.42174 | 7.76322 | 5473 ft | 232 kts | 63° |
| 2026-05-04 22:00 | 45.42896 | 7.78373 | 5483 ft | 232 kts | 65° |
| 2026-05-04 22:00 | 45.43608 | 7.80435 | 5489 ft | 232 kts | 64° |
| 2026-05-04 22:00 | 45.44382 | 7.82456 | 5499 ft | 233 kts | 54° |
| 2026-05-04 22:00 | 45.45565 | 7.84029 | 5503 ft | 234 kts | 35° |
| 2026-05-04 22:01 | 45.47044 | 7.84990 | 5507 ft | 236 kts | 16° |
| 2026-05-04 22:01 | 45.48675 | 7.85205 | 5506 ft | 237 kts | 356° |
| 2026-05-04 22:01 | 45.50282 | 7.84643 | 5508 ft | 238 kts | 339° |
| 2026-05-04 22:01 | 45.51825 | 7.83786 | 5505 ft | 238 kts | 340° |
| 2026-05-04 22:02 | 45.53363 | 7.82977 | 5504 ft | 239 kts | 340° |
| 2026-05-04 22:02 | 45.54919 | 7.82148 | 5503 ft | 239 kts | 339° |
| 2026-05-04 22:02 | 45.56470 | 7.81305 | 5510 ft | 238 kts | 339° |
| 2026-05-04 22:02 | 45.58008 | 7.80477 | 5518 ft | 237 kts | 339° |
| 2026-05-04 22:03 | 45.59056 | 7.79912 | 5515 ft | 239 kts | 339° |
| 2026-05-04 22:03 | 45.61118 | 7.78797 | 5509 ft | 240 kts | 340° |
| 2026-05-04 22:03 | 45.61934 | 7.78203 | 5506 ft | 87 kts | 357° |
| 2026-05-04 22:03 | 45.61886 | 7.77781 | 4092 ft | 0 kts | 184° |